createdAt,value
2023-04-23T00:00:08.246Z,73
2023-04-23T00:01:09.326Z,73
2023-04-23T00:02:08.364Z,73
2023-04-23T00:03:09.207Z,73
2023-04-23T00:04:09.443Z,73
2023-04-23T00:05:09.481Z,73
2023-04-23T00:06:08.461Z,73
2023-04-23T00:07:08.663Z,73
2023-04-23T00:08:08.950Z,73
2023-04-23T00:09:08.074Z,73
2023-04-23T00:10:08.879Z,73
2023-04-23T00:16:08.587Z,73
2023-04-23T00:17:08.996Z,73
2023-04-23T00:18:08.367Z,73
2023-04-23T00:19:08.280Z,73
2023-04-23T00:20:08.523Z,73
2023-04-23T00:21:08.594Z,73
2023-04-23T00:22:09.183Z,73
2023-04-23T00:23:08.243Z,73
2023-04-23T00:24:08.527Z,73
2023-04-23T00:25:08.258Z,73
2023-04-23T00:26:08.402Z,73
2023-04-23T00:27:08.430Z,73
2023-04-23T00:28:08.461Z,73
2023-04-23T00:29:08.748Z,73
2023-04-23T00:30:08.772Z,73
2023-04-23T00:31:08.502Z,73
2023-04-23T00:32:09.184Z,73
2023-04-23T00:33:08.040Z,74
2023-04-23T00:34:08.348Z,73
2023-04-23T00:35:08.804Z,74
2023-04-23T00:36:08.243Z,73
2023-04-23T00:37:08.465Z,73
2023-04-23T00:38:08.229Z,73
2023-04-23T00:39:08.316Z,73
2023-04-23T00:40:08.427Z,73
2023-04-23T00:41:08.479Z,73
2023-04-23T00:42:08.519Z,73
2023-04-23T00:43:08.853Z,73
2023-04-23T00:44:09.128Z,73
2023-04-23T00:45:08.028Z,73
2023-04-23T00:46:09.387Z,73
2023-04-23T00:47:08.349Z,73
2023-04-23T00:50:08.375Z,73
2023-04-23T00:51:08.756Z,73
2023-04-23T00:52:08.380Z,73
2023-04-23T00:53:08.251Z,73
2023-04-23T00:54:08.995Z,73
2023-04-23T00:55:08.518Z,73
2023-04-23T00:56:08.977Z,73
2023-04-23T01:00:08.099Z,73
2023-04-23T01:01:08.517Z,73
2023-04-23T01:02:09.015Z,73
2023-04-23T01:05:08.174Z,73
2023-04-23T01:07:08.680Z,73
2023-04-23T01:08:08.954Z,73
2023-04-23T01:09:08.586Z,73
2023-04-23T01:10:08.863Z,73
2023-04-23T01:11:08.760Z,73
2023-04-23T01:12:08.584Z,73
2023-04-23T01:13:08.510Z,73
2023-04-23T01:16:08.371Z,73
2023-04-23T01:17:08.806Z,73
2023-04-23T01:18:09.300Z,73
2023-04-23T01:19:08.523Z,73
2023-04-23T01:20:09.027Z,73
2023-04-23T01:21:08.070Z,73
2023-04-23T01:22:08.379Z,73
2023-04-23T01:23:08.615Z,73
2023-04-23T01:24:08.246Z,73
2023-04-23T01:25:08.358Z,74
2023-04-23T01:26:08.183Z,74
2023-04-23T01:27:08.879Z,74
2023-04-23T01:28:09.142Z,74
2023-04-23T01:29:08.921Z,74
2023-04-23T01:31:08.569Z,74
2023-04-23T01:33:09.011Z,74
2023-04-23T01:36:08.118Z,74
2023-04-23T01:37:09.364Z,74
2023-04-23T01:38:08.627Z,75
2023-04-23T01:39:08.928Z,75
2023-04-23T01:40:08.326Z,75
2023-04-23T01:41:08.946Z,75
2023-04-23T01:43:08.496Z,75
2023-04-23T01:44:08.745Z,75
2023-04-23T01:45:09.016Z,75
2023-04-23T01:46:08.688Z,75
2023-04-23T01:47:09.433Z,75
2023-04-23T01:48:08.106Z,75
2023-04-23T01:49:08.434Z,76
2023-04-23T01:50:09.369Z,76
2023-04-23T01:53:08.152Z,76
2023-04-23T01:54:08.576Z,76
2023-04-23T01:58:08.496Z,76
2023-04-23T01:59:08.337Z,77
2023-04-23T02:00:08.724Z,77
2023-04-23T02:01:08.724Z,77
2023-04-23T02:02:09.128Z,77
2023-04-23T02:03:09.034Z,77
2023-04-23T02:04:08.581Z,77
2023-04-23T02:07:08.570Z,77
2023-04-23T02:08:08.751Z,77
2023-04-23T02:09:09.108Z,77
2023-04-23T02:10:08.182Z,77
2023-04-23T02:11:08.480Z,77
2023-04-23T02:12:07.340Z,77
2023-04-23T02:13:08.724Z,77
2023-04-23T02:14:09.075Z,77
2023-04-23T02:15:08.937Z,77
2023-04-23T02:16:08.648Z,78
2023-04-23T02:17:09.016Z,78
2023-04-23T02:18:08.788Z,78
2023-04-23T02:21:08.809Z,78
2023-04-23T02:22:08.991Z,78
2023-04-23T02:23:08.205Z,78
2023-04-23T02:24:08.454Z,78
2023-04-23T02:25:08.556Z,78
2023-04-23T02:26:08.664Z,78
2023-04-23T02:27:08.785Z,78
2023-04-23T02:28:08.368Z,78
2023-04-23T02:29:08.850Z,78
2023-04-23T02:30:08.744Z,78
2023-04-23T02:38:08.477Z,78
2023-04-23T02:39:08.721Z,78
2023-04-23T02:40:09.090Z,78
2023-04-23T02:41:08.613Z,78
2023-04-23T02:42:09.080Z,78
2023-04-23T02:43:08.180Z,78
2023-04-23T02:44:07.726Z,78
2023-04-23T02:45:08.998Z,78
2023-04-23T02:46:08.175Z,78
2023-04-23T02:47:08.269Z,78
2023-04-23T02:48:08.638Z,78
2023-04-23T02:49:08.772Z,78
2023-04-23T02:50:09.046Z,78
2023-04-23T02:51:08.491Z,78
2023-04-23T02:52:08.777Z,78
2023-04-23T02:53:08.379Z,78
2023-04-23T02:54:09.217Z,78
2023-04-23T02:57:08.224Z,78
2023-04-23T02:58:08.482Z,78
2023-04-23T02:59:08.829Z,78
2023-04-23T03:00:08.856Z,78
2023-04-23T03:01:09.126Z,78
2023-04-23T03:02:09.119Z,79
2023-04-23T03:03:09.023Z,79
2023-04-23T03:04:08.782Z,79
2023-04-23T03:05:08.324Z,79
2023-04-23T03:06:08.338Z,79
2023-04-23T03:07:08.324Z,79
2023-04-23T03:10:08.932Z,79
2023-04-23T03:11:08.812Z,79
2023-04-23T03:12:09.111Z,79
2023-04-23T03:13:08.279Z,79
2023-04-23T03:14:08.926Z,79
2023-04-23T03:18:08.465Z,79
2023-04-23T03:20:08.026Z,80
2023-04-23T03:21:08.503Z,80
2023-04-23T03:22:08.700Z,80
2023-04-23T03:23:08.082Z,80
2023-04-23T03:24:08.969Z,80
2023-04-23T03:25:09.080Z,80
2023-04-23T03:26:08.049Z,80
2023-04-23T03:27:08.842Z,80
2023-04-23T03:28:08.251Z,80
2023-04-23T03:29:08.678Z,80
2023-04-23T03:30:08.967Z,80
2023-04-23T03:31:08.108Z,80
2023-04-23T03:32:09.069Z,80
2023-04-23T03:33:08.255Z,80
2023-04-23T03:34:08.523Z,80
2023-04-23T03:35:08.676Z,80
2023-04-23T03:37:07.853Z,80
2023-04-23T03:38:09.149Z,80
2023-04-23T03:39:08.279Z,80
2023-04-23T03:40:08.017Z,80
2023-04-23T03:41:08.087Z,80
2023-04-23T03:42:08.332Z,80
2023-04-23T03:43:07.705Z,81
2023-04-23T03:44:08.888Z,81
2023-04-23T03:45:09.194Z,81
2023-04-23T03:46:08.579Z,81
2023-04-23T03:47:08.804Z,81
2023-04-23T03:48:08.735Z,81
2023-04-23T03:49:08.860Z,81
2023-04-23T03:52:07.746Z,81
2023-04-23T03:53:08.485Z,81
2023-04-23T03:54:08.593Z,81
2023-04-23T03:55:08.820Z,81
2023-04-23T03:56:08.318Z,81
2023-04-23T03:57:08.637Z,81
2023-04-23T04:03:08.576Z,81
2023-04-23T04:04:09.543Z,81
2023-04-23T04:05:09.831Z,81
2023-04-23T04:06:08.765Z,81
2023-04-23T04:07:09.124Z,81
2023-04-23T04:08:08.124Z,81
2023-04-23T04:09:08.786Z,81
2023-04-23T04:10:09.145Z,81
2023-04-23T04:11:08.101Z,81
2023-04-23T04:12:08.106Z,82
2023-04-23T04:13:08.406Z,81
2023-04-23T04:14:08.846Z,81
2023-04-23T04:15:08.211Z,81
2023-04-23T04:16:08.725Z,82
2023-04-23T04:17:07.949Z,82
2023-04-23T04:18:08.288Z,82
2023-04-23T04:19:08.972Z,82
2023-04-23T04:22:08.540Z,82
2023-04-23T04:23:08.655Z,82
2023-04-23T04:24:08.947Z,82
2023-04-23T04:25:09.112Z,82
2023-04-23T04:26:08.110Z,82
2023-04-23T04:27:08.533Z,82
2023-04-23T04:28:08.943Z,82
2023-04-23T04:29:08.454Z,82
2023-04-23T04:31:08.757Z,82
2023-04-23T04:32:08.424Z,82
2023-04-23T04:33:08.741Z,82
2023-04-23T04:34:08.110Z,82
2023-04-23T04:35:08.584Z,82
2023-04-23T04:36:08.947Z,82
2023-04-23T04:40:08.166Z,83
2023-04-23T04:41:08.254Z,83
2023-04-23T04:42:08.536Z,83
2023-04-23T04:43:08.265Z,83
2023-04-23T04:44:08.844Z,83
2023-04-23T04:45:08.673Z,83
2023-04-23T04:46:09.853Z,83
2023-04-23T04:49:09.154Z,83
2023-04-23T04:50:08.398Z,83
2023-04-23T04:52:08.497Z,83
2023-04-23T04:53:08.991Z,83
2023-04-23T04:54:08.071Z,83
2023-04-23T04:55:08.368Z,83
2023-04-23T04:56:08.302Z,83
2023-04-23T04:57:07.250Z,83
2023-04-23T04:58:08.506Z,84
2023-04-23T05:03:09.825Z,84
2023-04-23T05:04:09.508Z,84
2023-04-23T05:05:08.864Z,84
2023-04-23T05:09:08.152Z,84
2023-04-23T05:10:08.398Z,84
2023-04-23T05:11:08.687Z,84
2023-04-23T05:15:08.734Z,84
2023-04-23T05:17:08.445Z,84
2023-04-23T05:18:08.535Z,84
2023-04-23T05:19:08.787Z,84
2023-04-23T05:20:08.854Z,84
2023-04-23T05:21:09.095Z,84
2023-04-23T05:22:08.174Z,84
2023-04-23T05:23:07.511Z,84
2023-04-23T05:24:08.702Z,84
2023-04-23T05:25:08.885Z,84
2023-04-23T05:26:08.428Z,84
2023-04-23T05:27:08.546Z,84
2023-04-23T05:28:08.955Z,84
2023-04-23T05:31:08.785Z,84
2023-04-23T05:33:09.075Z,84
2023-04-23T05:34:08.098Z,84
2023-04-23T05:35:08.531Z,84
2023-04-23T05:36:08.310Z,84
2023-04-23T05:37:08.537Z,84
2023-04-23T05:38:08.754Z,84
2023-04-23T05:39:08.929Z,84
2023-04-23T05:40:08.839Z,84
2023-04-23T05:41:08.860Z,84
2023-04-23T05:42:08.938Z,84
2023-04-23T05:43:08.862Z,84
2023-04-23T05:44:08.149Z,84
2023-04-23T05:45:11.172Z,84
2023-04-23T05:46:08.604Z,84
2023-04-23T05:47:08.933Z,84
2023-04-23T05:48:08.660Z,84
2023-04-23T05:49:08.900Z,84
2023-04-23T05:50:08.751Z,84
2023-04-23T05:51:08.800Z,84
2023-04-23T05:52:08.985Z,84
2023-04-23T05:53:08.087Z,84
2023-04-23T05:54:08.394Z,84
2023-04-23T05:55:08.584Z,84
2023-04-23T05:56:08.963Z,84
2023-04-23T05:59:08.184Z,84
2023-04-23T06:00:08.559Z,84
2023-04-23T06:01:08.181Z,84
2023-04-23T06:02:08.296Z,84
2023-04-23T06:03:08.991Z,84
2023-04-23T06:04:09.402Z,84
2023-04-23T06:05:08.882Z,84
2023-04-23T06:09:08.208Z,84
2023-04-23T06:10:08.667Z,84
2023-04-23T06:11:08.880Z,84
2023-04-23T06:12:08.168Z,84
2023-04-23T06:13:08.378Z,84
2023-04-23T06:14:08.599Z,84
2023-04-23T06:15:09.156Z,84
2023-04-23T06:16:08.298Z,84
2023-04-23T06:17:08.380Z,84
2023-04-23T06:20:08.610Z,84
2023-04-23T06:21:08.589Z,84
2023-04-23T06:22:08.180Z,84
2023-04-23T06:23:08.304Z,83
2023-04-23T06:24:08.809Z,83
2023-04-23T06:27:08.128Z,83
2023-04-23T06:28:07.392Z,83
2023-04-23T06:29:08.382Z,83
2023-04-23T06:30:08.918Z,83
2023-04-23T06:31:09.008Z,83
2023-04-23T06:39:08.251Z,83
2023-04-23T06:40:08.689Z,83
2023-04-23T06:44:08.685Z,83
2023-04-23T06:45:11.428Z,83
2023-04-23T06:46:09.143Z,83
2023-04-23T06:50:08.736Z,83
2023-04-23T06:51:08.431Z,83
2023-04-23T06:52:08.480Z,83
2023-04-23T06:53:08.741Z,83
2023-04-23T06:54:08.982Z,83
2023-04-23T06:55:08.405Z,83
2023-04-23T06:56:08.347Z,83
2023-04-23T06:57:08.516Z,84
2023-04-23T06:58:09.017Z,84
2023-04-23T06:59:08.161Z,84
2023-04-23T07:00:08.315Z,84
2023-04-23T07:01:09.089Z,84
2023-04-23T07:04:08.765Z,84
2023-04-23T07:05:07.833Z,84
2023-04-23T07:06:09.228Z,84
2023-04-23T07:07:08.378Z,84
2023-04-23T07:08:08.765Z,84
2023-04-23T07:09:09.069Z,84
2023-04-23T07:10:08.299Z,84
2023-04-23T07:11:08.423Z,84
2023-04-23T07:12:08.844Z,84
2023-04-23T07:13:08.895Z,84
2023-04-23T07:14:08.176Z,84
2023-04-23T07:15:08.590Z,84
2023-04-23T07:16:08.816Z,84
2023-04-23T07:17:09.082Z,84
2023-04-23T07:18:08.428Z,84
2023-04-23T07:19:07.980Z,84
2023-04-23T07:20:08.598Z,84
2023-04-23T07:21:08.745Z,84
2023-04-23T07:22:08.895Z,84
2023-04-23T07:25:08.812Z,84
2023-04-23T07:26:09.105Z,84
2023-04-23T07:27:08.129Z,84
2023-04-23T07:28:08.478Z,84
2023-04-23T07:29:09.071Z,84
2023-04-23T07:30:09.092Z,84
2023-04-23T07:31:08.100Z,84
2023-04-23T07:32:08.683Z,84
2023-04-23T07:33:08.682Z,84
2023-04-23T07:35:08.581Z,84
2023-04-23T07:36:08.602Z,84
2023-04-23T07:37:08.441Z,84
2023-04-23T07:38:08.801Z,84
2023-04-23T07:39:09.122Z,84
2023-04-23T07:40:08.047Z,84
2023-04-23T07:41:08.106Z,84
2023-04-23T07:42:08.898Z,84
2023-04-23T07:43:09.043Z,84
2023-04-23T07:44:09.116Z,84
2023-04-23T07:49:08.428Z,84
2023-04-23T07:50:08.597Z,84
2023-04-23T07:51:08.687Z,84
2023-04-23T07:52:08.647Z,84
2023-04-23T07:53:09.140Z,84
2023-04-23T07:54:08.382Z,84
2023-04-23T07:55:08.783Z,84
2023-04-23T07:56:08.872Z,84
2023-04-23T07:57:08.205Z,84
2023-04-23T07:58:08.472Z,84
2023-04-23T07:59:08.516Z,84
2023-04-23T08:00:08.506Z,84
2023-04-23T08:01:08.826Z,84
2023-04-23T08:08:08.128Z,84
2023-04-23T08:09:08.494Z,84
2023-04-23T08:10:08.610Z,84
2023-04-23T08:11:08.785Z,84
2023-04-23T08:12:09.054Z,84
2023-04-23T08:13:08.258Z,84
2023-04-23T08:14:08.393Z,84
2023-04-23T08:15:08.944Z,84
2023-04-23T08:16:09.186Z,84
2023-04-23T08:17:08.967Z,84
2023-04-23T08:18:08.242Z,84
2023-04-23T08:19:12.636Z,84
2023-04-23T08:20:09.090Z,84
2023-04-23T08:23:09.172Z,84
2023-04-23T08:24:08.034Z,84
2023-04-23T08:25:08.513Z,84
2023-04-23T08:26:08.740Z,84
2023-04-23T08:27:09.003Z,84
2023-04-23T08:28:08.055Z,84
2023-04-23T08:29:10.233Z,84
2023-04-23T08:30:08.748Z,84
2023-04-23T08:31:30.991Z,84
2023-04-23T08:33:09.240Z,84
2023-04-23T08:34:08.188Z,84
2023-04-23T08:35:08.423Z,84
2023-04-23T08:37:19.908Z,84
2023-04-23T08:39:08.072Z,84
2023-04-23T08:40:08.463Z,84
2023-04-23T08:41:08.553Z,84
2023-04-23T08:42:08.890Z,84
2023-04-23T08:43:09.099Z,84
2023-04-23T08:44:08.249Z,84
2023-04-23T08:45:08.757Z,84
2023-04-23T08:46:08.826Z,84
2023-04-23T08:47:09.299Z,84
2023-04-23T08:48:08.537Z,84
2023-04-23T08:49:08.415Z,84
2023-04-23T08:50:08.910Z,84
2023-04-23T08:55:08.365Z,84
2023-04-23T08:56:08.674Z,84
2023-04-23T08:57:08.893Z,84
2023-04-23T08:58:09.110Z,84
2023-04-23T08:59:08.307Z,84
2023-04-23T09:02:08.442Z,84
2023-04-23T09:03:08.948Z,84
2023-04-23T09:05:08.949Z,84
2023-04-23T09:06:08.701Z,84
2023-04-23T09:07:08.200Z,84
2023-04-23T09:08:08.304Z,84
2023-04-23T09:09:08.497Z,84
2023-04-23T09:10:08.916Z,84
2023-04-23T09:11:08.131Z,84
2023-04-23T09:12:08.564Z,84
2023-04-23T09:15:08.663Z,84
2023-04-23T09:16:08.741Z,84
2023-04-23T09:17:09.235Z,84
2023-04-23T09:18:08.284Z,85
2023-04-23T09:19:08.510Z,84
2023-04-23T09:20:07.673Z,84
2023-04-23T09:21:08.102Z,84
2023-04-23T09:22:08.255Z,84
2023-04-23T09:23:08.583Z,84
2023-04-23T09:24:08.278Z,85
2023-04-23T09:25:08.737Z,84
2023-04-23T09:27:08.171Z,84
2023-04-23T09:28:08.084Z,84
2023-04-23T09:29:08.549Z,84
2023-04-23T09:30:08.822Z,84
2023-04-23T09:31:08.936Z,84
2023-04-23T09:32:09.490Z,84
2023-04-23T09:33:08.468Z,84
2023-04-23T09:34:07.801Z,84
2023-04-23T09:35:08.165Z,84
2023-04-23T09:36:08.876Z,84
2023-04-23T09:37:09.132Z,84
2023-04-23T09:38:08.258Z,84
2023-04-23T09:39:08.654Z,84
2023-04-23T09:40:09.047Z,84
2023-04-23T09:45:08.937Z,84
2023-04-23T09:46:09.240Z,84
2023-04-23T09:47:08.864Z,84
2023-04-23T09:48:09.109Z,84
2023-04-23T09:53:08.085Z,84
2023-04-23T09:54:08.693Z,84
2023-04-23T09:55:09.214Z,84
2023-04-23T09:56:08.422Z,83
2023-04-23T09:57:08.625Z,84
2023-04-23T09:58:08.802Z,84
2023-04-23T09:59:08.209Z,84
2023-04-23T10:00:21.962Z,84
2023-04-23T10:06:00.926Z,83
2023-04-23T10:07:24.945Z,83
2023-04-23T10:09:08.856Z,83
2023-04-23T10:10:09.281Z,83
2023-04-23T10:13:08.607Z,83
2023-04-23T10:14:08.791Z,83
2023-04-23T10:15:08.307Z,83
2023-04-23T10:16:35.711Z,82
2023-04-23T10:18:09.002Z,82
2023-04-23T10:19:08.263Z,82
2023-04-23T10:20:08.535Z,82
2023-04-23T10:21:08.809Z,82
2023-04-23T10:22:23.032Z,82
2023-04-23T10:24:08.894Z,82
2023-04-23T10:25:09.312Z,82
2023-04-23T10:26:08.118Z,82
2023-04-23T10:27:21.897Z,81
2023-04-23T10:28:08.131Z,81
2023-04-23T10:29:08.408Z,81
2023-04-23T10:30:11.213Z,81
2023-04-23T10:31:09.207Z,81
2023-04-23T10:32:08.303Z,81
2023-04-23T10:33:33.552Z,81
2023-04-23T10:35:08.992Z,81
2023-04-23T10:36:09.172Z,81
2023-04-23T10:37:08.229Z,81
2023-04-23T10:38:08.625Z,80
2023-04-23T10:41:08.120Z,79
2023-04-23T10:42:08.295Z,80
2023-04-23T10:43:08.362Z,80
2023-04-23T10:44:09.315Z,80
2023-04-23T10:45:25.538Z,80
2023-04-23T10:47:08.949Z,79
2023-04-23T10:48:09.063Z,79
2023-04-23T10:49:08.269Z,79
2023-04-23T10:50:08.584Z,79
2023-04-23T10:52:21.052Z,79
2023-04-23T10:53:08.561Z,78
2023-04-23T10:56:08.637Z,78
2023-04-23T10:57:08.869Z,78
2023-04-23T10:58:10.355Z,78
2023-04-23T10:59:08.250Z,77
2023-04-23T11:00:08.508Z,77
2023-04-23T11:01:08.249Z,76
2023-04-23T11:02:08.633Z,76
2023-04-23T11:03:09.106Z,76
2023-04-23T11:04:08.925Z,76
2023-04-23T11:05:08.162Z,76
2023-04-23T11:06:08.900Z,75
2023-04-23T11:07:09.094Z,75
2023-04-23T11:08:23.101Z,76
2023-04-23T11:10:08.921Z,76
2023-04-23T11:11:08.525Z,76
2023-04-23T11:12:08.804Z,76
2023-04-23T11:13:08.227Z,76
2023-04-23T11:14:08.551Z,75
2023-04-23T11:15:08.898Z,75
2023-04-23T11:16:08.754Z,74
2023-04-23T11:17:08.753Z,74
2023-04-23T11:18:09.433Z,74
2023-04-23T11:19:08.343Z,74
2023-04-23T11:20:08.760Z,74
2023-04-23T11:21:08.933Z,73
2023-04-23T11:22:08.188Z,73
2023-04-23T11:23:08.546Z,74
2023-04-23T11:24:08.908Z,73
2023-04-23T11:25:08.760Z,73
2023-04-23T11:26:08.320Z,73
2023-04-23T11:27:08.512Z,73
2023-04-23T11:28:08.816Z,73
2023-04-23T11:29:08.146Z,73
2023-04-23T11:30:08.436Z,73
2023-04-23T11:32:10.728Z,73
2023-04-23T11:33:08.884Z,73
2023-04-23T11:34:08.428Z,74
2023-04-23T11:35:09.180Z,73
2023-04-23T11:37:08.842Z,74
2023-04-23T11:38:09.045Z,73
2023-04-23T11:39:08.372Z,73
2023-04-23T11:40:08.499Z,73
2023-04-23T11:41:08.739Z,73
2023-04-23T11:42:08.951Z,72
2023-04-23T11:45:08.262Z,72
2023-04-23T11:46:08.308Z,72
2023-04-23T11:47:08.675Z,71
2023-04-23T11:48:09.386Z,71
2023-04-23T11:49:08.262Z,71
2023-04-23T11:50:08.616Z,71
2023-04-23T11:53:08.331Z,71
2023-04-23T11:57:08.164Z,70
2023-04-23T11:58:08.560Z,70
2023-04-23T11:59:08.813Z,70
2023-04-23T12:00:08.822Z,70
2023-04-23T12:01:09.054Z,70
2023-04-23T12:02:08.174Z,70
2023-04-23T12:03:09.683Z,70
2023-04-23T12:04:09.041Z,70
2023-04-23T12:05:09.084Z,70
2023-04-23T12:06:08.603Z,69
2023-04-23T12:07:30.101Z,69
2023-04-23T12:09:08.802Z,69
2023-04-23T12:10:09.077Z,69
2023-04-23T12:15:08.326Z,69
2023-04-23T12:16:11.136Z,69
2023-04-23T12:18:08.205Z,68
2023-04-23T12:19:08.431Z,68
2023-04-23T12:20:08.851Z,69
2023-04-23T12:21:08.129Z,69
2023-04-23T12:22:08.190Z,68
2023-04-23T12:23:08.769Z,68
2023-04-23T12:24:08.860Z,68
2023-04-23T12:25:08.473Z,68
2023-04-23T12:26:08.475Z,68
2023-04-23T12:27:08.632Z,68
2023-04-23T12:28:08.688Z,68
2023-04-23T12:29:08.200Z,68
2023-04-23T12:30:12.026Z,68
2023-04-23T12:32:08.643Z,67
2023-04-23T12:33:09.037Z,67
2023-04-23T12:34:08.208Z,67
2023-04-23T12:35:08.699Z,67
2023-04-23T12:36:08.777Z,67
2023-04-23T12:37:07.250Z,67
2023-04-23T12:38:08.400Z,67
2023-04-23T12:39:08.649Z,67
2023-04-23T12:40:09.306Z,67
2023-04-23T12:41:08.552Z,67
2023-04-23T12:42:09.176Z,67
2023-04-23T12:44:08.396Z,67
2023-04-23T12:45:08.840Z,66
2023-04-23T12:46:08.546Z,66
2023-04-23T12:49:08.053Z,66
2023-04-23T12:50:08.525Z,67
2023-04-23T12:51:08.420Z,66
2023-04-23T12:52:08.870Z,66
2023-04-23T12:53:08.907Z,66
2023-04-23T12:54:08.107Z,66
2023-04-23T12:55:08.732Z,66
2023-04-23T12:56:08.999Z,65
2023-04-23T12:57:08.290Z,66
2023-04-23T12:58:08.433Z,65
2023-04-23T12:59:08.753Z,65
2023-04-23T13:00:08.875Z,65
2023-04-23T13:01:09.284Z,65
2023-04-23T13:02:08.763Z,65
2023-04-23T13:03:09.076Z,65
2023-04-23T13:04:09.110Z,65
2023-04-23T13:05:08.160Z,65
2023-04-23T13:06:08.650Z,65
2023-04-23T13:07:08.957Z,65
2023-04-23T13:08:08.218Z,65
2023-04-23T13:09:08.253Z,65
2023-04-23T13:10:08.698Z,65
2023-04-23T13:11:08.748Z,65
2023-04-23T13:12:09.096Z,66
2023-04-23T13:13:08.276Z,66
2023-04-23T13:14:08.498Z,66
2023-04-23T13:15:09.041Z,66
2023-04-23T13:16:08.130Z,66
2023-04-23T13:17:08.446Z,66
2023-04-23T13:18:08.907Z,66
2023-04-23T13:19:09.060Z,66
2023-04-23T13:20:08.380Z,66
2023-04-23T13:29:08.050Z,66
2023-04-23T13:30:08.575Z,66
2023-04-23T13:31:08.802Z,66
2023-04-23T13:32:09.227Z,66
2023-04-23T13:33:08.337Z,66
2023-04-23T13:34:08.550Z,66
2023-04-23T13:35:08.891Z,65
2023-04-23T13:36:08.992Z,66
2023-04-23T13:37:08.041Z,66
2023-04-23T13:38:08.474Z,66
2023-04-23T13:39:08.600Z,65
2023-04-23T13:40:09.071Z,65
2023-04-23T13:41:08.155Z,65
2023-04-23T13:42:14.170Z,65
2023-04-23T13:44:09.033Z,65
2023-04-23T13:45:08.397Z,65
2023-04-23T13:46:08.630Z,66
2023-04-23T13:49:08.417Z,66
2023-04-23T13:50:08.918Z,66
2023-04-23T13:51:36.177Z,66
2023-04-23T13:55:08.369Z,66
2023-04-23T13:56:08.662Z,66
2023-04-23T13:57:09.138Z,66
2023-04-23T13:59:24.957Z,66
2023-04-23T14:01:09.401Z,66
2023-04-23T14:02:08.264Z,66
2023-04-23T14:03:08.898Z,66
2023-04-23T14:04:09.637Z,66
2023-04-23T14:05:09.050Z,65
2023-04-23T14:06:08.298Z,65
2023-04-23T14:07:08.434Z,65
2023-04-23T14:08:08.584Z,65
2023-04-23T14:09:08.895Z,66
2023-04-23T14:10:09.197Z,65
2023-04-23T14:11:08.107Z,65
2023-04-23T14:12:08.615Z,65
2023-04-23T14:13:09.079Z,65
2023-04-23T14:14:08.315Z,65
2023-04-23T14:15:08.495Z,65
2023-04-23T14:16:09.065Z,65
2023-04-23T14:17:08.915Z,64
2023-04-23T14:19:08.138Z,65
2023-04-23T14:20:08.364Z,65
2023-04-23T14:21:08.398Z,64
2023-04-23T14:22:07.856Z,64
2023-04-23T14:23:08.829Z,65
2023-04-23T14:24:07.954Z,65
2023-04-23T14:25:08.718Z,65
2023-04-23T14:26:08.719Z,65
2023-04-23T14:27:10.193Z,65
2023-04-23T14:28:08.277Z,65
2023-04-23T14:29:08.694Z,65
2023-04-23T14:30:08.880Z,65
2023-04-23T14:31:08.723Z,65
2023-04-23T14:32:08.976Z,65
2023-04-23T14:38:08.239Z,64
2023-04-23T14:39:08.548Z,64
2023-04-23T14:40:09.051Z,64
2023-04-23T14:41:08.361Z,64
2023-04-23T14:42:08.370Z,64
2023-04-23T14:43:21.111Z,64
2023-04-23T14:45:08.330Z,64
2023-04-23T14:46:07.374Z,64
2023-04-23T14:47:08.702Z,63
2023-04-23T14:48:09.212Z,63
2023-04-23T14:49:08.120Z,63
2023-04-23T14:50:08.820Z,63
2023-04-23T14:51:09.001Z,64
2023-04-23T14:52:09.166Z,64
2023-04-23T14:53:08.223Z,64
2023-04-23T14:54:08.516Z,64
2023-04-23T14:55:08.917Z,64
2023-04-23T14:57:08.330Z,64
2023-04-23T15:01:10.566Z,64
2023-04-23T15:02:09.129Z,63
2023-04-23T15:05:08.741Z,63
2023-04-23T15:06:08.759Z,63
2023-04-23T15:07:08.916Z,63
2023-04-23T15:08:08.202Z,63
2023-04-23T15:09:08.518Z,63
2023-04-23T15:10:08.936Z,63
2023-04-23T15:14:08.693Z,63
2023-04-23T15:16:08.902Z,63
2023-04-23T15:17:08.224Z,63
2023-04-23T15:18:08.632Z,63
2023-04-23T15:19:08.654Z,64
2023-04-23T15:20:08.311Z,64
2023-04-23T15:22:08.719Z,63
2023-04-23T15:24:08.944Z,63
2023-04-23T15:25:07.896Z,63
2023-04-23T15:26:08.608Z,63
2023-04-23T15:27:08.875Z,63
2023-04-23T15:28:08.124Z,63
2023-04-23T15:31:08.693Z,63
2023-04-23T15:32:09.158Z,62
2023-04-23T15:33:08.212Z,62
2023-04-23T15:34:09.392Z,62
2023-04-23T15:35:08.815Z,62
2023-04-23T15:36:08.424Z,62
2023-04-23T15:37:08.770Z,61
2023-04-23T15:38:08.854Z,61
2023-04-23T15:39:08.025Z,61
2023-04-23T15:40:08.468Z,61
2023-04-23T15:41:09.000Z,61
2023-04-23T15:42:08.388Z,61
2023-04-23T15:43:08.456Z,61
2023-04-23T15:44:08.963Z,61
2023-04-23T15:45:08.463Z,61
2023-04-23T15:46:08.749Z,61
2023-04-23T15:47:08.995Z,61
2023-04-23T15:52:08.453Z,62
2023-04-23T15:53:08.036Z,62
2023-04-23T15:54:08.933Z,62
2023-04-23T15:55:08.582Z,62
2023-04-23T15:56:08.980Z,62
2023-04-23T15:57:07.871Z,63
2023-04-23T15:58:08.302Z,63
2023-04-23T15:59:08.582Z,63
2023-04-23T16:00:08.843Z,63
2023-04-23T16:01:08.775Z,63
2023-04-23T16:02:09.358Z,63
2023-04-23T16:03:08.311Z,63
2023-04-23T16:04:18.278Z,63
2023-04-23T16:08:07.956Z,63
2023-04-23T16:09:09.200Z,63
2023-04-23T16:10:08.430Z,63
2023-04-23T16:11:08.681Z,62
2023-04-23T16:12:08.921Z,63
2023-04-23T16:13:08.410Z,63
2023-04-23T16:14:08.812Z,63
2023-04-23T16:15:08.098Z,63
2023-04-23T16:16:08.452Z,63
2023-04-23T16:17:09.058Z,62
2023-04-23T16:18:08.976Z,62
2023-04-23T16:21:08.419Z,63
2023-04-23T16:22:08.766Z,63
2023-04-23T16:23:09.128Z,62
2023-04-23T16:24:08.146Z,63
2023-04-23T16:25:08.497Z,63
2023-04-23T16:26:08.737Z,63
2023-04-23T16:27:08.895Z,63
2023-04-23T16:28:08.245Z,63
2023-04-23T16:29:26.496Z,63
2023-04-23T16:31:08.816Z,63
2023-04-23T16:32:07.364Z,63
2023-04-23T16:33:08.801Z,63
2023-04-23T16:34:08.658Z,62
2023-04-23T16:35:09.095Z,62
2023-04-23T16:37:07.953Z,62
2023-04-23T16:38:08.333Z,62
2023-04-23T16:39:08.687Z,63
2023-04-23T16:40:09.155Z,63
2023-04-23T16:41:08.950Z,63
2023-04-23T16:42:08.229Z,63
2023-04-23T16:43:08.693Z,63
2023-04-23T16:44:08.879Z,63
2023-04-23T16:45:09.392Z,63
2023-04-23T16:46:08.803Z,63
2023-04-23T16:48:08.387Z,63
2023-04-23T16:50:09.275Z,63
2023-04-23T16:51:09.145Z,63
2023-04-23T16:52:09.435Z,63
2023-04-23T16:53:08.520Z,63
2023-04-23T16:54:08.649Z,63
2023-04-23T16:58:08.369Z,63
2023-04-23T16:59:08.599Z,63
2023-04-23T17:00:09.092Z,63
2023-04-23T17:01:08.165Z,63
2023-04-23T17:02:08.944Z,63
2023-04-23T17:03:09.047Z,63
2023-04-23T17:04:10.016Z,63
2023-04-23T17:05:08.354Z,64
2023-04-23T17:06:08.739Z,63
2023-04-23T17:07:08.690Z,63
2023-04-23T17:08:09.007Z,64
2023-04-23T17:09:08.186Z,64
2023-04-23T17:10:08.654Z,64
2023-04-23T17:11:08.472Z,64
2023-04-23T17:12:08.667Z,64
2023-04-23T17:13:08.940Z,63
2023-04-23T17:14:08.079Z,63
2023-04-23T17:15:08.258Z,63
2023-04-23T17:16:08.396Z,63
2023-04-23T17:17:08.633Z,63
2023-04-23T17:18:09.949Z,64
2023-04-23T17:19:08.752Z,64
2023-04-23T17:20:09.003Z,64
2023-04-23T17:21:08.535Z,64
2023-04-23T17:22:08.974Z,64
2023-04-23T17:23:08.319Z,64
2023-04-23T17:24:08.538Z,63
2023-04-23T17:25:08.531Z,63
2023-04-23T17:26:08.191Z,63
2023-04-23T17:27:08.593Z,64
2023-04-23T17:28:08.757Z,64
2023-04-23T17:29:08.903Z,64
2023-04-23T17:30:08.376Z,64
2023-04-23T17:31:08.555Z,64
2023-04-23T17:32:08.898Z,64
2023-04-23T17:33:09.195Z,64
2023-04-23T17:35:16.444Z,64
2023-04-23T17:37:08.494Z,64
2023-04-23T17:38:08.653Z,64
2023-04-23T17:39:08.594Z,64
2023-04-23T17:40:09.044Z,64
2023-04-23T17:41:08.135Z,64
2023-04-23T17:42:08.637Z,64
2023-04-23T17:43:09.061Z,65
2023-04-23T17:45:08.259Z,65
2023-04-23T17:46:09.184Z,65
2023-04-23T17:47:09.228Z,65
2023-04-23T17:48:08.419Z,65
2023-04-23T17:49:08.451Z,65
2023-04-23T17:50:08.971Z,65
2023-04-23T17:51:08.175Z,65
2023-04-23T17:52:08.513Z,65
2023-04-23T17:53:08.738Z,65
2023-04-23T17:54:08.970Z,65
2023-04-23T17:55:08.200Z,65
2023-04-23T17:56:08.683Z,65
2023-04-23T17:57:08.896Z,65
2023-04-23T17:58:08.236Z,65
2023-04-23T17:59:08.501Z,65
2023-04-23T18:00:08.508Z,65
2023-04-23T18:01:08.204Z,65
2023-04-23T18:02:08.081Z,65
2023-04-23T18:03:09.052Z,65